This is the latest recevied weather packets stored in our database for station/object W9PEM-13. If no packets are shown the sender has not sent any weather packets the latest 10 day(s).
| Time | Temp. | Humidity | Pressure | Rain* | Wind** | Luminosity | Snow |
|---|---|---|---|---|---|---|---|
| 1777354193 | 15.56° C | 96% | 971.1 hPa | 0.51 mm | - | 0 W/m² | - |
| 1777353593 | 15.56° C | 96% | 971 hPa | 3.05 mm | - | 0 W/m² | - |
| 1777352992 | 16.11° C | 96% | 970.9 hPa | 9.91 mm | - | 0 W/m² | - |
| 1777352392 | 16.11° C | 98% | 970.7 hPa | 11.18 mm | - | 0 W/m² | - |
| 1777351794 | 16.11° C | 96% | 970.6 hPa | 11.18 mm | - | 0 W/m² | - |
| 1777351073 | 16.11° C | 97% | 970.7 hPa | 10.92 mm | - | 0 W/m² | - |
| 1777351015 | 16.11° C | 98% | 970.6 hPa | 10.92 mm | - | 0 W/m² | - |
| 1777350414 | 15.56° C | 100% | 970.6 hPa | 10.92 mm | - | 0 W/m² | - |
| 1777349815 | 15° C | 99% | 970.9 hPa | 6.1 mm | - | 0 W/m² | - |
| 1777349219 | 14.44° C | 99% | 970.8 hPa | 1.02 mm | - | 0 W/m² | - |
| 1777348614 | 14.44° C | 99% | 970.7 hPa | 0 mm | - | 0 W/m² | - |
| 1777348262 | 13.89° C | 99% | 970.8 hPa | 0 mm | - | 0 W/m² | - |
| 1777347662 | 13.89° C | 99% | 970.9 hPa | 0 mm | - | 0 W/m² | - |
| 1777347062 | 13.89° C | 99% | 970.8 hPa | 0 mm | - | 0 W/m² | - |
| 1777346462 | 13.89° C | 99% | 971 hPa | 0 mm | - | 0 W/m² | - |
| 1777345863 | 13.33° C | 100% | 970.7 hPa | 0 mm | - | 0 W/m² | - |
| 1777345262 | 12.78° C | 99% | 970.6 hPa | 0 mm | - | 0 W/m² | - |
| 1777344662 | 12.78° C | 99% | 970.4 hPa | 0 mm | - | 0 W/m² | - |
| 1777344062 | 12.78° C | 100% | 970.5 hPa | 0 mm | - | 0 W/m² | - |
| 1777343462 | 12.22° C | 100% | 970.7 hPa | 0 mm | - | 0 W/m² | - |
| 1777342862 | 12.22° C | 100% | 970.5 hPa | 0 mm | - | 0 W/m² | - |
| 1777342262 | 12.22° C | 100% | 970.7 hPa | 0 mm | - | 0 W/m² | - |
| 1777341662 | 12.22° C | 100% | 970.9 hPa | 0 mm | - | 0 W/m² | - |
| 1777341062 | 12.22° C | 100% | 970.7 hPa | 0 mm | - | 0 W/m² | - |
| 1777340462 | 11.67° C | 99% | 970.5 hPa | 0 mm | - | 0 W/m² | - |
* Rain latest hour (hover to see other rain measurements)
** Current wind speed in m/s (hover to see current wind gust speed)